sensor_id;sensor_type;location;lat;lon;timestamp;P1;durP1;ratioP1;P2;durP2;ratioP2
33074;SDS011;19433;51.292;6.868;2023-01-19T00:01:15;10.97;;;9.13;;
33074;SDS011;19433;51.292;6.868;2023-01-19T00:03:40;12.27;;;10.77;;
33074;SDS011;19433;51.292;6.868;2023-01-19T00:06:06;10.20;;;9.20;;
33074;SDS011;19433;51.292;6.868;2023-01-19T00:08:32;10.50;;;9.40;;
33074;SDS011;19433;51.292;6.868;2023-01-19T00:10:59;10.63;;;9.63;;
33074;SDS011;19433;51.292;6.868;2023-01-19T00:13:24;12.33;;;10.83;;
33074;SDS011;19433;51.292;6.868;2023-01-19T00:15:50;11.70;;;10.00;;
33074;SDS011;19433;51.292;6.868;2023-01-19T00:18:15;11.57;;;10.37;;
33074;SDS011;19433;51.292;6.868;2023-01-19T00:20:41;11.17;;;9.73;;
33074;SDS011;19433;51.292;6.868;2023-01-19T00:23:06;10.43;;;9.23;;
33074;SDS011;19433;51.292;6.868;2023-01-19T00:25:32;10.47;;;9.40;;
33074;SDS011;19433;51.292;6.868;2023-01-19T00:27:58;9.67;;;8.70;;
33074;SDS011;19433;51.292;6.868;2023-01-19T00:30:23;10.83;;;9.20;;
33074;SDS011;19433;51.292;6.868;2023-01-19T00:32:49;12.07;;;10.77;;
33074;SDS011;19433;51.292;6.868;2023-01-19T00:35:14;13.30;;;10.20;;
33074;SDS011;19433;51.292;6.868;2023-01-19T00:37:40;11.60;;;10.50;;
33074;SDS011;19433;51.292;6.868;2023-01-19T00:40:05;10.27;;;9.23;;
33074;SDS011;19433;51.292;6.868;2023-01-19T00:42:31;10.53;;;9.53;;
33074;SDS011;19433;51.292;6.868;2023-01-19T00:45:14;12.73;;;9.53;;
33074;SDS011;19433;51.292;6.868;2023-01-19T00:47:42;12.00;;;9.10;;
33074;SDS011;19433;51.292;6.868;2023-01-19T00:50:08;12.10;;;10.63;;
33074;SDS011;19433;51.292;6.868;2023-01-19T00:52:38;11.57;;;10.40;;
33074;SDS011;19433;51.292;6.868;2023-01-19T00:55:05;13.00;;;9.83;;
33074;SDS011;19433;51.292;6.868;2023-01-19T00:57:32;11.57;;;9.77;;
33074;SDS011;19433;51.292;6.868;2023-01-19T00:59:57;12.23;;;10.20;;
33074;SDS011;19433;51.292;6.868;2023-01-19T01:02:23;11.97;;;10.77;;
33074;SDS011;19433;51.292;6.868;2023-01-19T01:04:48;10.70;;;9.70;;
33074;SDS011;19433;51.292;6.868;2023-01-19T01:07:18;10.60;;;8.90;;
33074;SDS011;19433;51.292;6.868;2023-01-19T01:09:44;12.00;;;9.97;;
33074;SDS011;19433;51.292;6.868;2023-01-19T01:12:09;10.03;;;9.03;;
33074;SDS011;19433;51.292;6.868;2023-01-19T01:14:34;11.40;;;10.40;;
33074;SDS011;19433;51.292;6.868;2023-01-19T01:17:00;10.63;;;9.43;;
33074;SDS011;19433;51.292;6.868;2023-01-19T01:19:25;11.23;;;9.40;;
33074;SDS011;19433;51.292;6.868;2023-01-19T01:21:50;11.00;;;9.53;;
33074;SDS011;19433;51.292;6.868;2023-01-19T01:24:16;10.40;;;9.37;;
33074;SDS011;19433;51.292;6.868;2023-01-19T01:26:42;10.53;;;9.33;;
33074;SDS011;19433;51.292;6.868;2023-01-19T01:29:08;10.37;;;9.27;;
33074;SDS011;19433;51.292;6.868;2023-01-19T01:31:33;10.67;;;9.43;;
33074;SDS011;19433;51.292;6.868;2023-01-19T01:33:59;11.37;;;9.67;;
33074;SDS011;19433;51.292;6.868;2023-01-19T01:36:24;10.93;;;9.30;;
33074;SDS011;19433;51.292;6.868;2023-01-19T01:38:53;11.50;;;10.10;;
33074;SDS011;19433;51.292;6.868;2023-01-19T01:41:18;10.50;;;9.30;;
33074;SDS011;19433;51.292;6.868;2023-01-19T01:43:53;10.77;;;9.67;;
33074;SDS011;19433;51.292;6.868;2023-01-19T01:46:22;14.60;;;9.90;;
33074;SDS011;19433;51.292;6.868;2023-01-19T01:49:07;11.67;;;10.40;;
33074;SDS011;19433;51.292;6.868;2023-01-19T01:51:38;14.03;;;10.30;;
33074;SDS011;19433;51.292;6.868;2023-01-19T01:54:28;10.30;;;8.90;;
33074;SDS011;19433;51.292;6.868;2023-01-19T01:56:57;10.73;;;9.63;;
33074;SDS011;19433;51.292;6.868;2023-01-19T01:59:29;10.50;;;9.40;;
33074;SDS011;19433;51.292;6.868;2023-01-19T02:02:14;12.43;;;9.77;;
33074;SDS011;19433;51.292;6.868;2023-01-19T02:05:07;11.20;;;9.77;;
33074;SDS011;19433;51.292;6.868;2023-01-19T02:10:40;10.63;;;9.53;;
33074;SDS011;19433;51.292;6.868;2023-01-19T02:13:25;11.57;;;9.60;;
33074;SDS011;19433;51.292;6.868;2023-01-19T02:15:54;10.13;;;9.07;;
33074;SDS011;19433;51.292;6.868;2023-01-19T02:18:23;13.00;;;10.73;;
33074;SDS011;19433;51.292;6.868;2023-01-19T02:26:11;14.10;;;9.67;;
33074;SDS011;19433;51.292;6.868;2023-01-19T02:28:40;10.73;;;9.37;;
33074;SDS011;19433;51.292;6.868;2023-01-19T02:31:10;11.73;;;9.47;;
33074;SDS011;19433;51.292;6.868;2023-01-19T02:33:36;11.20;;;9.20;;
33074;SDS011;19433;51.292;6.868;2023-01-19T02:36:02;11.60;;;10.10;;
33074;SDS011;19433;51.292;6.868;2023-01-19T02:38:28;10.47;;;9.47;;
33074;SDS011;19433;51.292;6.868;2023-01-19T02:40:55;11.73;;;8.70;;
33074;SDS011;19433;51.292;6.868;2023-01-19T02:43:23;10.33;;;9.23;;
33074;SDS011;19433;51.292;6.868;2023-01-19T02:45:49;12.00;;;9.20;;
33074;SDS011;19433;51.292;6.868;2023-01-19T02:48:14;12.50;;;10.43;;
33074;SDS011;19433;51.292;6.868;2023-01-19T02:50:43;11.13;;;9.70;;
33074;SDS011;19433;51.292;6.868;2023-01-19T02:55:51;11.33;;;9.00;;
33074;SDS011;19433;51.292;6.868;2023-01-19T03:03:31;10.10;;;9.20;;
33074;SDS011;19433;51.292;6.868;2023-01-19T03:06:07;13.60;;;9.40;;
33074;SDS011;19433;51.292;6.868;2023-01-19T03:08:52;11.70;;;10.17;;
33074;SDS011;19433;51.292;6.868;2023-01-19T03:11:22;14.50;;;9.20;;
33074;SDS011;19433;51.292;6.868;2023-01-19T03:13:55;10.60;;;9.43;;
33074;SDS011;19433;51.292;6.868;2023-01-19T03:16:43;10.70;;;9.70;;
33074;SDS011;19433;51.292;6.868;2023-01-19T03:19:14;11.00;;;9.87;;
33074;SDS011;19433;51.292;6.868;2023-01-19T03:21:45;12.20;;;9.13;;
33074;SDS011;19433;51.292;6.868;2023-01-19T03:24:16;10.20;;;9.30;;
33074;SDS011;19433;51.292;6.868;2023-01-19T03:26:45;11.50;;;8.90;;
33074;SDS011;19433;51.292;6.868;2023-01-19T03:29:13;9.27;;;8.37;;
33074;SDS011;19433;51.292;6.868;2023-01-19T03:31:42;10.93;;;9.23;;
33074;SDS011;19433;51.292;6.868;2023-01-19T03:34:11;14.80;;;9.77;;
33074;SDS011;19433;51.292;6.868;2023-01-19T03:36:45;11.03;;;10.03;;
33074;SDS011;19433;51.292;6.868;2023-01-19T03:39:16;8.83;;;7.93;;
33074;SDS011;19433;51.292;6.868;2023-01-19T03:41:46;10.40;;;9.17;;
33074;SDS011;19433;51.292;6.868;2023-01-19T03:44:14;11.20;;;8.83;;
33074;SDS011;19433;51.292;6.868;2023-01-19T03:46:40;9.43;;;8.37;;
33074;SDS011;19433;51.292;6.868;2023-01-19T03:49:06;9.30;;;8.30;;
33074;SDS011;19433;51.292;6.868;2023-01-19T03:51:36;9.70;;;8.70;;
33074;SDS011;19433;51.292;6.868;2023-01-19T03:54:03;9.97;;;8.50;;
33074;SDS011;19433;51.292;6.868;2023-01-19T03:56:29;9.23;;;8.10;;
33074;SDS011;19433;51.292;6.868;2023-01-19T03:58:55;14.03;;;8.07;;
33074;SDS011;19433;51.292;6.868;2023-01-19T04:01:20;12.47;;;8.60;;
33074;SDS011;19433;51.292;6.868;2023-01-19T04:03:46;8.40;;;7.60;;
33074;SDS011;19433;51.292;6.868;2023-01-19T04:06:12;8.43;;;7.73;;
33074;SDS011;19433;51.292;6.868;2023-01-19T04:08:38;9.67;;;8.67;;
33074;SDS011;19433;51.292;6.868;2023-01-19T04:11:04;10.63;;;8.53;;
33074;SDS011;19433;51.292;6.868;2023-01-19T04:13:30;17.43;;;9.03;;
33074;SDS011;19433;51.292;6.868;2023-01-19T04:15:59;10.03;;;9.07;;
33074;SDS011;19433;51.292;6.868;2023-01-19T04:18:26;10.43;;;9.23;;
33074;SDS011;19433;51.292;6.868;2023-01-19T04:20:51;8.47;;;7.43;;
33074;SDS011;19433;51.292;6.868;2023-01-19T04:23:17;10.07;;;9.13;;
33074;SDS011;19433;51.292;6.868;2023-01-19T04:25:42;10.70;;;9.60;;
33074;SDS011;19433;51.292;6.868;2023-01-19T04:28:07;11.67;;;9.73;;
33074;SDS011;19433;51.292;6.868;2023-01-19T04:30:32;15.47;;;10.60;;
33074;SDS011;19433;51.292;6.868;2023-01-19T04:32:58;11.00;;;9.60;;
33074;SDS011;19433;51.292;6.868;2023-01-19T04:35:23;12.03;;;10.60;;
33074;SDS011;19433;51.292;6.868;2023-01-19T04:37:50;13.23;;;10.43;;
33074;SDS011;19433;51.292;6.868;2023-01-19T04:40:15;12.23;;;10.63;;
33074;SDS011;19433;51.292;6.868;2023-01-19T04:42:44;20.73;;;11.40;;
33074;SDS011;19433;51.292;6.868;2023-01-19T04:45:10;14.30;;;11.50;;
33074;SDS011;19433;51.292;6.868;2023-01-19T04:47:36;13.90;;;11.90;;
33074;SDS011;19433;51.292;6.868;2023-01-19T04:50:02;15.27;;;11.20;;
33074;SDS011;19433;51.292;6.868;2023-01-19T04:52:32;14.37;;;11.80;;
33074;SDS011;19433;51.292;6.868;2023-01-19T04:54:59;15.80;;;11.87;;
33074;SDS011;19433;51.292;6.868;2023-01-19T04:57:25;18.00;;;12.30;;
33074;SDS011;19433;51.292;6.868;2023-01-19T04:59:50;13.83;;;10.93;;
33074;SDS011;19433;51.292;6.868;2023-01-19T05:02:15;16.87;;;13.07;;
33074;SDS011;19433;51.292;6.868;2023-01-19T05:04:41;17.70;;;11.70;;
33074;SDS011;19433;51.292;6.868;2023-01-19T05:07:06;17.20;;;12.50;;
33074;SDS011;19433;51.292;6.868;2023-01-19T05:09:32;20.63;;;13.47;;
33074;SDS011;19433;51.292;6.868;2023-01-19T05:11:57;20.33;;;12.03;;
33074;SDS011;19433;51.292;6.868;2023-01-19T05:14:22;21.77;;;14.63;;
33074;SDS011;19433;51.292;6.868;2023-01-19T05:16:48;18.13;;;14.00;;
33074;SDS011;19433;51.292;6.868;2023-01-19T05:19:13;18.97;;;14.90;;
33074;SDS011;19433;51.292;6.868;2023-01-19T05:21:39;18.40;;;14.43;;
33074;SDS011;19433;51.292;6.868;2023-01-19T05:24:04;19.73;;;14.37;;
33074;SDS011;19433;51.292;6.868;2023-01-19T05:26:30;21.70;;;14.00;;
33074;SDS011;19433;51.292;6.868;2023-01-19T05:28:55;18.53;;;14.77;;
33074;SDS011;19433;51.292;6.868;2023-01-19T05:31:20;18.67;;;13.47;;
33074;SDS011;19433;51.292;6.868;2023-01-19T05:33:45;18.63;;;13.70;;
33074;SDS011;19433;51.292;6.868;2023-01-19T05:36:12;21.47;;;13.90;;
33074;SDS011;19433;51.292;6.868;2023-01-19T05:38:37;16.30;;;12.60;;
33074;SDS011;19433;51.292;6.868;2023-01-19T05:41:02;22.27;;;16.13;;
33074;SDS011;19433;51.292;6.868;2023-01-19T05:43:28;21.80;;;15.40;;
33074;SDS011;19433;51.292;6.868;2023-01-19T05:45:53;20.70;;;13.90;;
33074;SDS011;19433;51.292;6.868;2023-01-19T05:48:18;19.17;;;14.60;;
33074;SDS011;19433;51.292;6.868;2023-01-19T05:50:43;20.37;;;13.30;;
33074;SDS011;19433;51.292;6.868;2023-01-19T05:53:10;20.40;;;13.87;;
33074;SDS011;19433;51.292;6.868;2023-01-19T05:55:35;17.53;;;12.83;;
33074;SDS011;19433;51.292;6.868;2023-01-19T05:58:00;22.83;;;14.30;;
33074;SDS011;19433;51.292;6.868;2023-01-19T06:00:25;19.50;;;13.97;;
33074;SDS011;19433;51.292;6.868;2023-01-19T06:02:51;15.63;;;12.10;;
33074;SDS011;19433;51.292;6.868;2023-01-19T06:05:17;16.13;;;13.50;;
33074;SDS011;19433;51.292;6.868;2023-01-19T06:07:42;18.87;;;13.40;;
33074;SDS011;19433;51.292;6.868;2023-01-19T06:10:08;16.53;;;13.07;;
33074;SDS011;19433;51.292;6.868;2023-01-19T06:12:34;17.33;;;12.73;;
33074;SDS011;19433;51.292;6.868;2023-01-19T06:14:59;16.27;;;12.70;;
33074;SDS011;19433;51.292;6.868;2023-01-19T06:17:24;12.33;;;11.03;;
33074;SDS011;19433;51.292;6.868;2023-01-19T06:19:49;17.63;;;11.90;;
33074;SDS011;19433;51.292;6.868;2023-01-19T06:22:15;16.00;;;12.23;;
33074;SDS011;19433;51.292;6.868;2023-01-19T06:24:40;12.80;;;10.40;;
33074;SDS011;19433;51.292;6.868;2023-01-19T06:27:05;14.37;;;10.03;;
33074;SDS011;19433;51.292;6.868;2023-01-19T06:29:32;15.90;;;10.80;;
33074;SDS011;19433;51.292;6.868;2023-01-19T06:31:57;14.60;;;10.00;;
33074;SDS011;19433;51.292;6.868;2023-01-19T06:34:23;12.83;;;9.93;;
33074;SDS011;19433;51.292;6.868;2023-01-19T06:36:52;11.70;;;10.00;;
33074;SDS011;19433;51.292;6.868;2023-01-19T06:39:18;12.50;;;10.40;;
33074;SDS011;19433;51.292;6.868;2023-01-19T06:41:44;11.07;;;9.53;;
33074;SDS011;19433;51.292;6.868;2023-01-19T06:44:09;12.80;;;9.87;;
33074;SDS011;19433;51.292;6.868;2023-01-19T06:46:34;12.00;;;9.17;;
33074;SDS011;19433;51.292;6.868;2023-01-19T06:48:59;12.87;;;9.40;;
33074;SDS011;19433;51.292;6.868;2023-01-19T06:51:25;11.17;;;9.43;;
33074;SDS011;19433;51.292;6.868;2023-01-19T06:53:50;12.90;;;9.73;;
33074;SDS011;19433;51.292;6.868;2023-01-19T06:56:16;12.70;;;9.93;;
33074;SDS011;19433;51.292;6.868;2023-01-19T06:58:41;12.27;;;8.70;;
33074;SDS011;19433;51.292;6.868;2023-01-19T07:01:07;8.70;;;7.90;;
33074;SDS011;19433;51.292;6.868;2023-01-19T07:03:32;10.10;;;8.10;;
33074;SDS011;19433;51.292;6.868;2023-01-19T07:05:58;9.97;;;7.97;;
33074;SDS011;19433;51.292;6.868;2023-01-19T07:08:26;12.67;;;8.53;;
33074;SDS011;19433;51.292;6.868;2023-01-19T07:10:51;12.33;;;9.53;;
33074;SDS011;19433;51.292;6.868;2023-01-19T07:13:17;12.43;;;9.60;;
33074;SDS011;19433;51.292;6.868;2023-01-19T07:15:42;10.90;;;9.80;;
33074;SDS011;19433;51.292;6.868;2023-01-19T07:18:07;15.20;;;10.57;;
33074;SDS011;19433;51.292;6.868;2023-01-19T07:20:33;12.40;;;10.23;;
33074;SDS011;19433;51.292;6.868;2023-01-19T07:22:59;15.83;;;12.10;;
33074;SDS011;19433;51.292;6.868;2023-01-19T07:25:25;13.07;;;10.50;;
33074;SDS011;19433;51.292;6.868;2023-01-19T07:27:51;12.03;;;10.70;;
33074;SDS011;19433;51.292;6.868;2023-01-19T07:30:16;16.63;;;11.60;;
33074;SDS011;19433;51.292;6.868;2023-01-19T07:32:42;18.87;;;12.50;;
33074;SDS011;19433;51.292;6.868;2023-01-19T07:35:08;13.47;;;11.10;;
33074;SDS011;19433;51.292;6.868;2023-01-19T07:37:33;18.73;;;12.20;;
33074;SDS011;19433;51.292;6.868;2023-01-19T07:39:59;16.90;;;13.10;;
33074;SDS011;19433;51.292;6.868;2023-01-19T07:42:24;19.73;;;13.00;;
33074;SDS011;19433;51.292;6.868;2023-01-19T07:44:50;19.97;;;12.33;;
33074;SDS011;19433;51.292;6.868;2023-01-19T07:47:15;15.50;;;13.00;;
33074;SDS011;19433;51.292;6.868;2023-01-19T07:49:40;21.13;;;15.77;;
33074;SDS011;19433;51.292;6.868;2023-01-19T07:52:06;17.33;;;13.60;;
33074;SDS011;19433;51.292;6.868;2023-01-19T07:54:31;19.30;;;13.80;;
33074;SDS011;19433;51.292;6.868;2023-01-19T07:56:56;22.27;;;14.43;;
33074;SDS011;19433;51.292;6.868;2023-01-19T07:59:22;21.13;;;15.30;;
33074;SDS011;19433;51.292;6.868;2023-01-19T08:01:47;24.03;;;15.03;;
33074;SDS011;19433;51.292;6.868;2023-01-19T08:07:32;15.37;;;13.47;;
33074;SDS011;19433;51.292;6.868;2023-01-19T08:09:57;18.20;;;13.90;;
33074;SDS011;19433;51.292;6.868;2023-01-19T08:12:23;18.40;;;13.83;;
33074;SDS011;19433;51.292;6.868;2023-01-19T08:14:48;16.83;;;15.10;;
33074;SDS011;19433;51.292;6.868;2023-01-19T08:17:13;18.13;;;14.17;;
33074;SDS011;19433;51.292;6.868;2023-01-19T08:19:39;18.90;;;13.10;;
33074;SDS011;19433;51.292;6.868;2023-01-19T08:22:05;16.93;;;13.00;;
33074;SDS011;19433;51.292;6.868;2023-01-19T08:24:30;18.73;;;14.53;;
33074;SDS011;19433;51.292;6.868;2023-01-19T08:27:03;20.63;;;14.40;;
33074;SDS011;19433;51.292;6.868;2023-01-19T08:32:53;16.80;;;13.67;;
33074;SDS011;19433;51.292;6.868;2023-01-19T08:38:44;20.07;;;14.17;;
33074;SDS011;19433;51.292;6.868;2023-01-19T08:44:26;23.83;;;14.60;;
33074;SDS011;19433;51.292;6.868;2023-01-19T08:46:52;18.67;;;14.73;;
33074;SDS011;19433;51.292;6.868;2023-01-19T08:54:35;22.53;;;17.40;;
33074;SDS011;19433;51.292;6.868;2023-01-19T08:57:01;22.07;;;16.23;;
33074;SDS011;19433;51.292;6.868;2023-01-19T08:59:31;23.30;;;16.77;;
33074;SDS011;19433;51.292;6.868;2023-01-19T09:01:57;21.23;;;16.20;;
33074;SDS011;19433;51.292;6.868;2023-01-19T09:04:22;23.70;;;17.70;;
33074;SDS011;19433;51.292;6.868;2023-01-19T09:06:48;22.43;;;16.00;;
33074;SDS011;19433;51.292;6.868;2023-01-19T09:09:20;25.33;;;17.80;;
33074;SDS011;19433;51.292;6.868;2023-01-19T09:15:08;22.53;;;15.80;;
33074;SDS011;19433;51.292;6.868;2023-01-19T09:17:34;23.43;;;17.43;;
33074;SDS011;19433;51.292;6.868;2023-01-19T09:20:00;21.30;;;15.80;;
33074;SDS011;19433;51.292;6.868;2023-01-19T09:25:10;26.37;;;16.77;;
33074;SDS011;19433;51.292;6.868;2023-01-19T09:31:10;26.03;;;17.87;;
33074;SDS011;19433;51.292;6.868;2023-01-19T09:37:00;22.33;;;17.43;;
33074;SDS011;19433;51.292;6.868;2023-01-19T09:42:35;22.60;;;17.37;;
33074;SDS011;19433;51.292;6.868;2023-01-19T09:54:43;30.17;;;18.73;;
33074;SDS011;19433;51.292;6.868;2023-01-19T09:57:16;28.23;;;18.47;;
33074;SDS011;19433;51.292;6.868;2023-01-19T09:59:42;25.57;;;18.70;;
33074;SDS011;19433;51.292;6.868;2023-01-19T10:04:57;33.17;;;22.37;;
33074;SDS011;19433;51.292;6.868;2023-01-19T10:07:46;24.93;;;17.73;;
33074;SDS011;19433;51.292;6.868;2023-01-19T10:10:30;39.70;;;21.63;;
33074;SDS011;19433;51.292;6.868;2023-01-19T10:15:37;32.43;;;20.87;;
33074;SDS011;19433;51.292;6.868;2023-01-19T10:18:12;36.67;;;21.97;;
33074;SDS011;19433;51.292;6.868;2023-01-19T10:23:39;32.50;;;20.97;;
33074;SDS011;19433;51.292;6.868;2023-01-19T10:26:14;35.90;;;19.70;;
33074;SDS011;19433;51.292;6.868;2023-01-19T10:28:47;34.57;;;20.07;;
33074;SDS011;19433;51.292;6.868;2023-01-19T10:31:16;35.00;;;22.80;;
33074;SDS011;19433;51.292;6.868;2023-01-19T10:33:44;43.17;;;25.80;;
33074;SDS011;19433;51.292;6.868;2023-01-19T10:36:20;46.23;;;22.10;;
33074;SDS011;19433;51.292;6.868;2023-01-19T10:39:13;45.63;;;23.63;;
33074;SDS011;19433;51.292;6.868;2023-01-19T10:41:50;31.23;;;20.87;;
33074;SDS011;19433;51.292;6.868;2023-01-19T10:44:23;35.30;;;23.23;;
33074;SDS011;19433;51.292;6.868;2023-01-19T10:46:57;47.83;;;22.63;;
33074;SDS011;19433;51.292;6.868;2023-01-19T10:49:28;38.90;;;22.43;;
33074;SDS011;19433;51.292;6.868;2023-01-19T10:52:33;41.90;;;23.77;;
33074;SDS011;19433;51.292;6.868;2023-01-19T10:55:04;43.53;;;23.27;;
33074;SDS011;19433;51.292;6.868;2023-01-19T10:57:35;35.33;;;22.60;;
33074;SDS011;19433;51.292;6.868;2023-01-19T11:03:36;36.00;;;21.50;;
33074;SDS011;19433;51.292;6.868;2023-01-19T11:09:30;33.53;;;22.27;;
33074;SDS011;19433;51.292;6.868;2023-01-19T12:08:14;37.20;;;22.37;;
33074;SDS011;19433;51.292;6.868;2023-01-19T12:10:45;34.27;;;22.27;;
33074;SDS011;19433;51.292;6.868;2023-01-19T12:14:01;33.70;;;24.20;;
33074;SDS011;19433;51.292;6.868;2023-01-19T12:16:12;34.10;;;21.70;;
33074;SDS011;19433;51.292;6.868;2023-01-19T12:19:04;38.03;;;22.80;;
33074;SDS011;19433;51.292;6.868;2023-01-19T12:40:47;28.83;;;19.50;;
33074;SDS011;19433;51.292;6.868;2023-01-19T12:43:22;30.70;;;19.30;;
33074;SDS011;19433;51.292;6.868;2023-01-19T13:11:23;30.60;;;19.07;;
33074;SDS011;19433;51.292;6.868;2023-01-19T13:26:25;24.33;;;16.20;;
33074;SDS011;19433;51.292;6.868;2023-01-19T13:28:54;26.73;;;16.20;;
33074;SDS011;19433;51.292;6.868;2023-01-19T13:31:21;27.37;;;16.57;;
33074;SDS011;19433;51.292;6.868;2023-01-19T13:34:02;21.27;;;15.83;;
33074;SDS011;19433;51.292;6.868;2023-01-19T13:36:30;22.67;;;15.77;;
33074;SDS011;19433;51.292;6.868;2023-01-19T13:38:59;29.33;;;17.10;;
33074;SDS011;19433;51.292;6.868;2023-01-19T13:42:15;22.67;;;15.70;;
33074;SDS011;19433;51.292;6.868;2023-01-19T13:53:51;29.20;;;14.87;;
33074;SDS011;19433;51.292;6.868;2023-01-19T13:56:55;26.90;;;15.53;;
33074;SDS011;19433;51.292;6.868;2023-01-19T14:29:13;25.50;;;16.93;;
33074;SDS011;19433;51.292;6.868;2023-01-19T14:35:36;24.17;;;16.90;;
33074;SDS011;19433;51.292;6.868;2023-01-19T14:38:01;24.43;;;17.60;;
33074;SDS011;19433;51.292;6.868;2023-01-19T15:03:16;17.50;;;12.67;;
33074;SDS011;19433;51.292;6.868;2023-01-19T15:08:48;15.93;;;13.87;;
33074;SDS011;19433;51.292;6.868;2023-01-19T15:11:17;23.03;;;14.33;;
33074;SDS011;19433;51.292;6.868;2023-01-19T15:17:03;21.17;;;14.50;;
33074;SDS011;19433;51.292;6.868;2023-01-19T15:19:28;22.00;;;14.97;;
33074;SDS011;19433;51.292;6.868;2023-01-19T15:21:53;17.13;;;13.37;;
33074;SDS011;19433;51.292;6.868;2023-01-19T15:24:19;23.03;;;16.70;;
33074;SDS011;19433;51.292;6.868;2023-01-19T15:26:46;22.77;;;14.33;;
33074;SDS011;19433;51.292;6.868;2023-01-19T15:32:33;23.17;;;16.50;;
33074;SDS011;19433;51.292;6.868;2023-01-19T15:34:58;30.23;;;19.47;;
33074;SDS011;19433;51.292;6.868;2023-01-19T15:37:24;26.87;;;17.17;;
33074;SDS011;19433;51.292;6.868;2023-01-19T15:39:52;22.90;;;17.07;;
33074;SDS011;19433;51.292;6.868;2023-01-19T15:54:12;22.47;;;15.57;;
33074;SDS011;19433;51.292;6.868;2023-01-19T16:00:05;21.40;;;15.13;;
33074;SDS011;19433;51.292;6.868;2023-01-19T16:05:59;23.33;;;16.80;;
33074;SDS011;19433;51.292;6.868;2023-01-19T16:08:25;22.37;;;16.97;;
33074;SDS011;19433;51.292;6.868;2023-01-19T16:10:52;25.73;;;17.93;;
